Latest Coastal Weather Observations for Cape Bruny AWS

IDT60701

Issued at 9:32 pm EDT Friday 23 October 2020 (issued every 10 minutes, with the page automatically refreshed every 10 minutes)

About coastal observations | Map of coastal stations | Coastal observations for TAS | Marine services | Other Formats
Station Details ID: 094198 Name: CAPE BRUNY (CAPE BRUNY) Lat: -43.49 Lon: 147.14 Height: 59.7 m
Data from the previous 72 hours. | See also: Recent months at Cape Bruny AWS
Date/Time
EDT
Wind Sea
Height
m
Swell Vis
km
Cloud Weather Temp
°C
Press
MSL
hPa
Rain since
9am
mm
Dir  Spd
kts
Gust
kts
Height
m
Period
s
Dir
23/09:30pm N 2 4 - - - - - - - 11.3 1005.3 0.0
23/09:00pm E 4 4 - - - - - - - 11.5 1005.6 0.0
23/08:30pm E 4 6 - - - - - - - 11.9 1005.3 0.0
23/08:00pm E 6 7 - - - - - - - 11.9 1005.3 0.0
23/07:30pm E 6 6 - - - - - - - 12.1 1005.3 0.0
23/07:00pm E 6 8 - - - - - - - 12.4 1005.4 0.0
23/06:30pm ESE 7 8 - - - - - - - 12.5 1005.6 0.0
23/06:00pm ESE 6 8 - - - - - - - 12.6 1005.6 0.0
23/05:30pm ESE 8 9 - - - - - - - 12.7 1005.5 0.0
23/05:00pm ESE 7 9 - - - - - - - 12.8 1005.6 0.0
23/04:30pm ESE 8 10 - - - - - - - 13.1 1005.7 0.0
23/04:00pm ESE 8 9 - - - - - - - 13.5 1005.7 0.0
23/03:30pm ESE 9 11 - - - - - - - 14.3 1006.1 0.0
23/03:00pm ESE 8 10 - - - - - - - 14.2 1006.4 0.0
23/02:30pm ESE 9 11 - - - - - - - 14.6 1006.8 0.0
23/02:00pm ESE 8 10 - - - - - - - 13.8 1007.2 0.0
23/01:30pm SSE 7 10 - - - - - - - 15.3 1007.4 0.0
23/01:00pm SSE 6 8 - - - - - - - 14.0 1007.8 0.0
23/12:30pm SSE 8 10 - - - - - - - 14.3 1008.1 0.0
23/12:00pm SE 8 10 - - - - - - - 15.4 1008.3 0.0
23/11:30am SE 6 7 - - - - - - - 13.5 1008.7 0.0
23/11:00am S 6 8 - - - - - - - 14.0 1009.2 0.0
23/10:30am S 7 8 - - - - - - - 13.2 1009.4 0.0
23/10:00am S 7 9 - - - - - - - 12.1 1009.6 0.0
23/09:30am S 7 9 - - - - - - - 12.1 1009.8 0.0
23/09:00am S 7 9 - - - - - - - 11.8 1010.2 -
23/08:30am SSW 6 9 - - - - - - - 11.7 1010.1 -
23/08:00am WSW 5 7 - - - - - - - 11.5 1010.4 -
23/07:30am WSW 7 9 - - - - - - - 10.3 1010.3 -
23/07:00am WNW 6 8 - - - - - - - 9.6 1010.3 -
23/06:30am NW 5 8 - - - - - - - 9.4 1010.0 -
23/06:00am N 3 5 - - - - - - - 8.6 1009.8 -
23/05:30am NNE 7 9 - - - - - - - 9.1 1009.7 -
23/05:00am N 6 8 - - - - - - - 8.8 1010.0 -
23/04:30am N 8 9 - - - - - - - 9.5 1010.3 -
23/04:00am NNW 7 9 - - - - - - - 9.5 1010.4 -
23/03:30am N 8 10 - - - - - - - 9.9 1010.9 -
23/03:00am NW 7 9 - - - - - - - 10.4 1011.4 0.0
23/02:30am N 6 10 - - - - - - - 10.6 1011.7 -
23/02:00am NNE 6 9 - - - - - - - 10.9 1012.1 -
23/01:30am NNE 6 9 - - - - - - - 10.7 1012.7 -
23/01:00am N 5 7 - - - - - - - 10.6 1013.2 -
23/12:30am N 4 6 - - - - - - - 10.6 1013.7 -
23/12:00am NNE 7 9 - - - - - - - 10.3 1013.9 -
 
Date/Time
EDT
Wind Sea
Height
m
Swell Vis
km
Cloud Weather Temp
°C
Press
MSL
hPa
Rain since
9am
mm
Dir  Spd
kts
Gust
kts
Height
m
Period
s
Dir
22/11:30pm NE 4 5 - - - - - - - 10.4 1014.5 -
22/11:00pm NNW 4 5 - - - - - - - 10.0 1015.0 -
22/10:30pm N 3 5 - - - - - - - 10.2 1015.0 -
22/10:00pm NNW 4 5 - - - - - - - 10.2 1015.3 -
22/09:30pm N 5 6 - - - - - - - 9.7 1015.7 -
22/09:00pm NNE 4 5 - - - - - - - 9.8 1015.8 0.0
22/08:30pm NNE 4 5 - - - - - - - 10.1 1015.7 -
22/08:00pm ENE 4 5 - - - - - - - 10.4 1015.7 -
22/07:30pm ESE 5 7 - - - - - - - 10.7 1015.7 -
22/07:00pm ESE 6 7 - - - - - - - 11.0 1015.5 -
22/06:30pm SE 5 7 - - - - - - - 11.2 1015.6 -
22/06:00pm SSE 5 7 - - - - - - - 11.3 1015.6 -
22/05:30pm SSE 6 10 - - - - - - - 11.4 1015.7 -
22/05:00pm S 7 11 - - - - - - - 12.2 1015.8 -
22/04:30pm S 8 11 - - - - - - - 12.7 1016.0 -
22/04:00pm S 8 13 - - - - - - - 13.9 1016.1 -
22/03:30pm SSE 8 11 - - - - - - - 14.0 1016.2 -
22/03:00pm S 9 13 - - - - - - - 13.3 1016.2 -
22/02:30pm SSE 9 11 - - - - - - - 13.7 1016.3 -
22/02:00pm S 10 14 - - - - - - - 13.7 1016.4 -
22/01:30pm SSW 10 14 - - - - - - - 13.3 1016.3 -
22/01:00pm SSW 8 13 - - - - - - - 14.2 1016.4 0.0
22/12:30pm S 10 14 - - - - - - - 14.2 1016.6 0.0
22/12:00pm S 7 11 - - - - - - - 14.5 1016.8 0.0
22/11:30am SSE 6 8 - - - - - - - 14.6 1016.8 0.0
22/11:00am S 5 9 - - - - - - - 14.5 1017.0 0.0
22/10:30am WNW 4 5 - - - - - - - 13.2 1017.1 0.0
22/10:00am WNW 5 7 - - - - - - - 13.0 1017.2 0.0
22/09:30am W 5 6 - - - - - - - 12.4 1017.2 0.0
22/09:00am W 5 6 - - - - - - - 11.9 1017.3 0.6
22/08:30am WNW 5 6 - - - - - - - 10.9 1017.2 0.6
22/08:00am WNW 4 6 - - - - - - - 10.4 1017.0 0.6
22/07:30am NW 5 6 - - - - - - - 9.1 1016.8 0.6
22/07:00am WSW 5 9 - - - - - - - 8.8 1016.6 0.6
22/06:30am W 8 12 - - - - - - - 9.2 1016.3 0.6
22/06:00am W 7 10 - - - - - - Recent precip. 8.9 1016.0 0.6
22/05:30am WSW 8 10 - - - - - - - 8.7 1015.9 0.6
22/05:00am WSW 6 8 - - - - - - - 8.5 1016.0 0.4
22/04:30am WSW 9 13 - - - - - - - 9.0 1016.0 0.4
22/04:00am WSW 6 8 - - - - - - - 8.7 1015.8 0.4
22/03:30am SW 5 7 - - - - - - - 8.8 1015.7 0.4
22/03:00am W 7 8 - - - - - - - 9.8 1015.7 0.4
22/02:30am WSW 4 6 - - - - - - - 9.3 1015.8 0.4
22/02:00am SW 4 7 - - - - - - - 9.3 1016.0 0.4
22/01:30am SW 6 9 - - - - - - - 10.0 1016.1 0.4
22/01:00am WSW 8 11 - - - - - - - 10.1 1016.5 0.4
22/12:30am SW 5 7 - - - - - - - 10.2 1016.3 0.4
22/12:00am SW 6 9 - - - - - - - 10.1 1016.4 0.4
 
Date/Time
EDT
Wind Sea
Height
m
Swell Vis
km
Cloud Weather Temp
°C
Press
MSL
hPa
Rain since
9am
mm
Dir  Spd
kts
Gust
kts
Height
m
Period
s
Dir
21/11:30pm SW 6 8 - - - - - - - 10.1 1016.4 0.4
21/11:00pm SW 9 11 - - - - - - - 10.2 1016.3 0.4
21/10:30pm SW 7 10 - - - - - - - 10.3 1016.3 0.4
21/10:00pm SW 6 9 - - - - - - - 10.4 1016.3 0.4
21/09:30pm SSW 5 8 - - - - - - - 10.4 1016.2 0.4
21/09:00pm SW 6 10 - - - - - - - 10.5 1016.0 0.4
21/08:30pm S 6 10 - - - - - - - 10.7 1015.7 0.4
21/08:00pm SSW 6 10 - - - - - - - 10.8 1015.2 0.4
21/07:30pm SSW 5 9 - - - - - - - 10.7 1014.9 0.0
21/07:00pm SW 8 12 - - - - - - - 10.8 1014.7 0.0
21/06:30pm SW 12 18 - - - - - - - 11.3 1014.3 0.0
21/06:00pm SW 12 18 - - - - - - - 12.1 1014.2 0.0
21/05:30pm SW 14 18 - - - - - - - 12.4 1013.9 0.0
21/05:00pm SW 12 18 - - - - - - - 13.2 1013.9 0.0
21/04:30pm SW 12 16 - - - - - - - 14.9 1013.8 0.0
21/04:00pm SSW 12 18 - - - - - - - 15.1 1013.8 0.0
21/03:30pm SSW 9 14 - - - - - - - 15.4 1013.9 0.0
21/03:00pm S 9 12 - - - - - - - 15.4 1014.0 0.0
21/02:30pm ESE 8 11 - - - - - - - 15.2 1014.3 0.0
21/02:00pm ESE 9 12 - - - - - - - 15.8 1014.4 0.0
21/01:30pm ESE 9 11 - - - - - - - 15.2 1014.2 0.0
21/01:00pm SSE 7 9 - - - - - - - 16.7 1014.1 0.0
21/12:30pm ESE 7 10 - - - - - - - 16.4 1014.4 0.0
21/12:00pm S 6 9 - - - - - - - 15.5 1014.7 0.0
21/11:30am WSW 5 7 - - - - - - - 15.7 1014.8 0.0
21/11:00am W 6 8 - - - - - - - 15.7 1014.8 0.0
21/10:30am WNW 7 10 - - - - - - - 15.6 1014.9 0.0
21/10:00am NW 4 7 - - - - - - - 14.1 1015.0 0.0
21/09:30am NW 6 9 - - - - - - - 14.3 1014.9 0.0
21/09:00am NW 5 8 - - - - - - - 12.9 1015.0 0.0
21/08:30am WNW 5 7 - - - - - - - 12.0 1015.3 0.0
21/08:00am NW 5 7 - - - - - - - 11.9 1015.2 0.0
21/07:30am NNW 7 9 - - - - - - - 11.3 1015.0 0.0
21/07:00am NNW 7 9 - - - - - - - 10.7 1014.8 0.0
21/06:30am NNW 9 11 - - - - - - - 9.9 1014.6 0.0
21/06:00am NNW 8 9 - - - - - - - 9.9 1014.4 0.0
21/05:30am NW 8 10 - - - - - - - 10.7 1014.4 0.0
21/05:00am NW 7 8 - - - - - - - 9.8 1014.3 0.0
21/04:30am NW 7 10 - - - - - - - 9.7 1014.2 0.0
21/04:00am N 7 9 - - - - - - - 9.4 1014.3 0.0
21/03:30am N 9 11 - - - - - - - 9.8 1014.3 0.0
21/03:00am NNE 6 8 - - - - - - - 9.8 1014.4 0.0
21/02:30am NNW 7 9 - - - - - - - 10.0 1014.6 0.0
21/02:00am NNW 8 10 - - - - - - - 10.1 1014.8 0.0
21/01:30am NNW 6 7 - - - - - - - 10.4 1015.1 0.0
21/01:00am NW 7 10 - - - - - - - 11.1 1015.3 0.0
21/12:30am NW 8 11 - - - - - - - 11.3 1015.3 0.0
21/12:00am NW 9 12 - - - - - - - 11.2 1015.4 0.0
 
Date/Time
EDT
Wind Sea
Height
m
Swell Vis
km
Cloud Weather Temp
°C
Press
MSL
hPa
Rain since
9am
mm
Dir  Spd
kts
Gust
kts
Height
m
Period
s
Dir
20/11:30pm NNW 8 9 - - - - - - - 10.8 1015.6 0.0
20/11:00pm NNW 8 9 - - - - - - - 10.6 1015.8 0.0
20/10:30pm N 6 7 - - - - - - - 10.0 1015.9 0.0
20/10:00pm NNE 4 5 - - - - - - - 10.4 1016.1 0.0

Other formats

Comma delimited format used in spreadsheet applications
http://www.bom.gov.au/fwo/IDT60701/IDT60701.95967.axf

JavaScript Object Notation format (JSON) in row-major order
http://www.bom.gov.au/fwo/IDT60701/IDT60701.95967.json

Data quality

Most of these data are generated automatically and are frequently updated. Quality checks on data are not normally performed. It is possible for incorrect values to appear. Refer to information at About Latest Weather Observations and please check the disclaimer before using these data.